createdAt,value
2023-05-04T00:04:39.693Z,44.5
2023-05-04T00:09:40.314Z,44.5
2023-05-04T00:14:40.777Z,44.4
2023-05-04T00:19:41.926Z,44.3
2023-05-04T00:24:42.152Z,44.6
2023-05-04T00:29:42.674Z,44.4
2023-05-04T00:34:45.870Z,44.4
2023-05-04T00:39:48.521Z,44.6
2023-05-04T00:44:51.157Z,44.7
2023-05-04T00:49:51.289Z,44.5
2023-05-04T00:54:54.491Z,44.5
2023-05-04T00:59:57.272Z,44.5
2023-05-04T01:05:00.008Z,44.4
2023-05-04T01:10:02.794Z,44.6
2023-05-04T01:15:02.873Z,44.4
2023-05-04T01:20:06.548Z,44.6
2023-05-04T01:25:06.430Z,44.7
2023-05-04T01:30:09.640Z,44.6
2023-05-04T01:35:09.907Z,44.7
2023-05-04T01:40:09.418Z,44.6
2023-05-04T01:45:10.034Z,44.5
2023-05-04T01:50:10.473Z,44.8
2023-05-04T01:55:09.924Z,44.6
2023-05-04T02:00:10.650Z,44.6
2023-05-04T02:05:11.171Z,44.6
2023-05-04T02:10:11.836Z,44.6
2023-05-04T02:15:15.207Z,44.6
2023-05-04T02:20:15.391Z,44.9
2023-05-04T02:25:18.777Z,44.8
2023-05-04T02:30:19.051Z,44.5
2023-05-04T02:35:22.127Z,44.6
2023-05-04T02:40:22.141Z,44.6
2023-05-04T02:45:26.334Z,44.7
2023-05-04T02:50:28.746Z,44.6
2023-05-04T02:55:28.690Z,44.7
2023-05-04T03:00:28.814Z,44.6
2023-05-04T03:05:29.428Z,44.5
2023-05-04T03:10:29.870Z,44.6
2023-05-04T03:15:30.362Z,44.8
2023-05-04T03:20:30.975Z,44.5
2023-05-04T03:25:31.541Z,44.7
2023-05-04T03:30:32.020Z,44.6
2023-05-04T03:35:35.253Z,44.5
2023-05-04T03:40:35.498Z,44.4
2023-05-04T03:45:36.027Z,44.4
2023-05-04T03:50:36.319Z,44.5
2023-05-04T03:55:36.877Z,44.4
2023-05-04T04:00:41.219Z,44.5
2023-05-04T04:05:41.047Z,44.6
2023-05-04T04:10:44.244Z,44.5
2023-05-04T04:15:47.024Z,44.5
2023-05-04T04:20:47.028Z,44.6
2023-05-04T04:25:50.013Z,44.6
2023-05-04T04:30:50.190Z,44.5
2023-05-04T04:35:50.694Z,44.5
2023-05-04T04:40:53.998Z,44.5
2023-05-04T04:45:54.121Z,44.7
2023-05-04T04:50:54.612Z,44.7
2023-05-04T04:55:55.980Z,44.7
2023-05-04T05:00:56.547Z,44.7
2023-05-04T05:05:59.757Z,44.7
2023-05-04T05:10:59.733Z,44.5
2023-05-04T05:16:03.080Z,44.8
2023-05-04T05:21:03.062Z,44.7
2023-05-04T05:26:03.619Z,44.7
2023-05-04T05:31:05.179Z,44.9
2023-05-04T05:36:05.330Z,45
2023-05-04T05:41:05.700Z,45
2023-05-04T05:46:08.958Z,45
2023-05-04T05:51:09.065Z,45.1
2023-05-04T05:56:12.272Z,45.3
2023-05-04T06:01:15.089Z,45.4
2023-05-04T06:06:15.014Z,45.7
2023-05-04T06:11:15.752Z,45.6
2023-05-04T06:16:19.011Z,45.7
2023-05-04T06:21:19.026Z,45.4
2023-05-04T06:26:19.685Z,45.6
2023-05-04T06:31:20.322Z,45.7
2023-05-04T06:36:20.624Z,45.3
2023-05-04T06:41:20.953Z,45.4
2023-05-04T06:46:21.567Z,45.2
2023-05-04T06:51:21.919Z,45
2023-05-04T06:56:25.417Z,45.1
2023-05-04T07:01:27.321Z,45.3
2023-05-04T07:06:27.566Z,45.6
2023-05-04T07:11:27.891Z,45.6
2023-05-04T07:16:31.175Z,45.8
2023-05-04T07:21:31.149Z,45.5
2023-05-04T07:26:31.689Z,46
2023-05-04T07:31:32.230Z,45.6
2023-05-04T07:36:35.446Z,45.9
2023-05-04T07:41:38.110Z,46
2023-05-04T07:46:40.953Z,45.7
2023-05-04T07:51:43.673Z,45.9
2023-05-04T07:56:43.670Z,45.9
2023-05-04T08:01:44.363Z,45.9
2023-05-04T08:06:47.567Z,45.5
2023-05-04T08:11:48.209Z,45.5
2023-05-04T08:16:51.180Z,45.6
2023-05-04T08:21:51.745Z,45.5
2023-05-04T08:31:52.852Z,46
2023-05-04T08:36:56.306Z,45.5
2023-05-04T08:41:56.372Z,45.5
2023-05-04T08:46:59.601Z,45.6
2023-05-04T08:52:00.339Z,45.7
2023-05-04T08:57:00.538Z,45.7
2023-05-04T09:02:01.144Z,45.7
2023-05-04T09:07:01.424Z,45.7
2023-05-04T09:12:04.702Z,45.7
2023-05-04T09:17:07.549Z,45.7
2023-05-04T09:22:10.269Z,45.6
2023-05-04T09:27:13.078Z,45.7
2023-05-04T09:32:13.740Z,45.7
2023-05-04T09:37:14.316Z,45.9
2023-05-04T09:42:15.052Z,45.9
2023-05-04T09:47:18.211Z,46
2023-05-04T09:52:18.145Z,45.8
2023-05-04T09:57:21.098Z,46
2023-05-04T10:02:22.961Z,46.2
2023-05-04T10:07:21.834Z,46.2
2023-05-04T10:12:25.148Z,46.5
2023-05-04T10:17:27.866Z,46.2
2023-05-04T10:22:30.496Z,46.4
2023-05-04T10:27:30.624Z,46.4
2023-05-04T10:32:33.713Z,46.3
2023-05-04T10:37:33.752Z,46.3
2023-05-04T10:42:34.433Z,46.2
2023-05-04T10:47:37.728Z,46.2
2023-05-04T10:52:40.571Z,46.1
2023-05-04T10:57:43.455Z,46.2
2023-05-04T11:02:46.146Z,46.2
2023-05-04T11:07:46.281Z,46.3
2023-05-04T11:12:46.827Z,46.2
2023-05-04T11:17:47.314Z,46.4
2023-05-04T11:22:50.620Z,46.5
2023-05-04T11:27:52.021Z,46.4
2023-05-04T11:32:54.965Z,46.8
2023-05-04T11:37:55.077Z,46.8
2023-05-04T11:42:56.861Z,46.9
2023-05-04T11:47:55.871Z,46.9
2023-05-04T11:52:56.273Z,47
2023-05-04T11:57:56.627Z,47.1
2023-05-04T12:02:57.348Z,47.1
2023-05-04T12:08:00.713Z,47.2
2023-05-04T12:13:00.886Z,47.1
2023-05-04T12:18:02.907Z,47.1
2023-05-04T12:23:04.779Z,47
2023-05-04T12:28:04.944Z,46.9
2023-05-04T12:33:05.721Z,46.8
2023-05-04T12:38:05.894Z,46.9
2023-05-04T12:43:06.431Z,46.8
2023-05-04T12:48:09.690Z,46.8
2023-05-04T12:53:09.890Z,46.9
2023-05-04T12:58:10.468Z,46.8
2023-05-04T13:03:11.023Z,46.8
2023-05-04T13:08:11.461Z,46.9
2023-05-04T13:13:11.916Z,46.9
2023-05-04T13:17:19.716Z,46.9
2023-05-04T13:22:20.096Z,46.9
2023-05-04T13:27:21.595Z,46.9
2023-05-04T13:32:21.889Z,47
2023-05-04T13:37:22.349Z,47
2023-05-04T13:42:22.877Z,47
2023-05-04T13:47:25.436Z,47.1
2023-05-04T13:52:28.659Z,47.1
2023-05-04T13:57:28.710Z,47.1
2023-05-04T14:02:29.367Z,47.2
2023-05-04T14:07:30.398Z,47.1
2023-05-04T14:12:30.964Z,47.2
2023-05-04T14:17:34.311Z,47.2
2023-05-04T14:22:36.483Z,47.2
2023-05-04T14:27:34.927Z,47.2
2023-05-04T14:32:35.658Z,47.2
2023-05-04T14:37:38.731Z,47.2
2023-05-04T14:42:38.859Z,47.1
2023-05-04T14:47:39.754Z,47.2
2023-05-04T14:52:40.449Z,47.2
2023-05-04T14:57:41.101Z,47.2
2023-05-04T15:02:42.024Z,47.3
2023-05-04T15:07:42.455Z,47.3
2023-05-04T15:12:42.882Z,47.3
2023-05-04T15:17:43.374Z,47.3
2023-05-04T15:22:44.542Z,47.4
2023-05-04T15:27:44.932Z,47.4
2023-05-04T15:32:45.462Z,47.3
2023-05-04T15:37:45.741Z,47.3
2023-05-04T15:42:44.603Z,47.3
2023-05-04T15:47:45.204Z,47.4
2023-05-04T15:52:45.849Z,47.4
2023-05-04T15:57:46.068Z,47.4
2023-05-04T16:02:46.688Z,47.5
2023-05-04T16:07:47.336Z,47.5
2023-05-04T16:12:50.691Z,47.5
2023-05-04T16:17:53.621Z,47.5
2023-05-04T16:22:56.352Z,47.5
2023-05-04T16:27:59.068Z,47.5
2023-05-04T16:32:59.154Z,47.5
2023-05-04T16:37:59.614Z,47.5
2023-05-04T16:43:00.052Z,47.6
2023-05-04T16:48:00.403Z,47.5
2023-05-04T16:53:03.904Z,47.5
2023-05-04T16:58:03.569Z,47.5
2023-05-04T17:03:05.850Z,47.6
2023-05-04T17:08:06.027Z,47.6
2023-05-04T17:13:06.554Z,47.6
2023-05-04T17:18:09.639Z,47.6
2023-05-04T17:23:12.454Z,47.7
2023-05-04T17:28:12.852Z,47.7
2023-05-04T17:33:13.308Z,47.7
2023-05-04T17:38:25.900Z,47.7
2023-05-04T17:43:39.233Z,47.7
2023-05-04T17:48:37.471Z,47.7
2023-05-04T17:53:37.889Z,47.8
2023-05-04T17:58:38.272Z,47.7
2023-05-04T18:03:38.994Z,47.7
2023-05-04T18:08:39.317Z,47.7
2023-05-04T18:13:39.806Z,47.6
2023-05-04T18:18:40.333Z,47.6
2023-05-04T18:23:40.859Z,47.6
2023-05-04T18:28:44.211Z,47.5
2023-05-04T18:33:46.811Z,47.4
2023-05-04T18:38:46.988Z,47.4
2023-05-04T18:43:47.419Z,47.4
2023-05-04T18:48:50.628Z,47.4
2023-05-04T18:53:51.068Z,47.4
2023-05-04T18:58:51.543Z,47.3
2023-05-04T19:03:54.808Z,47.2
2023-05-04T19:08:55.532Z,47.2
2023-05-04T19:13:45.613Z,47.2
2023-05-04T19:18:46.200Z,47.1
2023-05-04T19:23:46.806Z,47.1
2023-05-04T19:28:47.266Z,47
2023-05-04T19:33:48.932Z,47
2023-05-04T19:38:49.120Z,47
2023-05-04T19:43:49.572Z,47
2023-05-04T19:48:52.788Z,46.9
2023-05-04T19:53:55.397Z,46.9
2023-05-04T19:58:55.424Z,46.9
2023-05-04T20:03:55.769Z,46.9
2023-05-04T20:08:56.135Z,46.9
2023-05-04T20:13:56.582Z,46.9
2023-05-04T20:18:57.330Z,46.9
2023-05-04T20:23:57.699Z,46.9
2023-05-04T20:29:00.891Z,46.9
2023-05-04T20:34:00.639Z,46.9
2023-05-04T20:39:01.146Z,46.8
2023-05-04T20:44:01.537Z,46.9
2023-05-04T20:49:02.189Z,47
2023-05-04T20:54:02.637Z,46.9
2023-05-04T20:59:03.069Z,46.9
2023-05-04T21:04:06.254Z,47
2023-05-04T21:09:09.004Z,46.9
2023-05-04T21:14:11.970Z,46.9
2023-05-04T21:19:14.807Z,46.9
2023-05-04T21:24:14.856Z,47
2023-05-04T21:29:15.167Z,46.9
2023-05-04T21:34:18.464Z,47
2023-05-04T21:39:28.816Z,46.9
2023-05-04T21:44:27.952Z,46.9
2023-05-04T21:49:28.439Z,46.9
2023-05-04T21:54:29.001Z,46.9
2023-05-04T21:59:29.428Z,46.9
2023-05-04T22:04:32.712Z,46.9
2023-05-04T22:09:35.562Z,47
2023-05-04T22:14:35.620Z,46.9
2023-05-04T22:19:36.005Z,46.9
2023-05-04T22:24:36.524Z,47
2023-05-04T22:29:37.199Z,47
2023-05-04T22:34:38.759Z,47
2023-05-04T22:39:39.160Z,46.9
2023-05-04T22:44:39.647Z,47
2023-05-04T22:49:42.931Z,46.9
2023-05-04T22:54:45.743Z,47
2023-05-04T22:59:45.726Z,47
2023-05-04T23:04:46.073Z,47
2023-05-04T23:09:46.577Z,47
2023-05-04T23:14:46.878Z,47
2023-05-04T23:19:47.248Z,47
2023-05-04T23:24:49.588Z,47.1
2023-05-04T23:29:49.823Z,47.1
2023-05-04T23:34:50.314Z,47
2023-05-04T23:39:51.102Z,47
2023-05-04T23:44:54.335Z,47.2
2023-05-04T23:49:23.378Z,47.1
2023-05-04T23:54:23.974Z,47.2
2023-05-04T23:59:24.402Z,47.2
